Time;durP1;ratioP1;P1;durP2;ratioP2;P2;SDS_P1;SDS_P2;PMS_P1;PMS_P2;Temp;Humidity;BMP_temperature;BMP_pressure;BME280_temperature;BME280_humidity;BME280_pressure;Samples;Min_cycle;Max_cycle;Signal;HPM_P1;HPM_P2
2023/08/07 00:01:18;;;;;;;23.25;4.05;;;;;;;13.30;100.00;101547.34;5287624;28;20023;-72
2023/08/07 00:03:48;;;;;;;11.68;4.13;;;;;;;13.28;100.00;101543.97;5287600;28;20420;-72
2023/08/07 00:06:19;;;;;;;18.83;4.35;;;;;;;13.22;100.00;101539.25;5287596;28;20028;-72
2023/08/07 00:08:49;;;;;;;14.73;2.88;;;;;;;13.20;100.00;101544.81;5287290;28;20129;-72
2023/08/07 00:11:20;;;;;;;22.65;4.38;;;;;;;13.05;100.00;101546.47;5287233;28;20019;-72
2023/08/07 00:13:50;;;;;;;16.40;5.32;;;;;;;13.03;100.00;101543.06;5271134;28;20340;-73
2023/08/07 00:16:21;;;;;;;16.35;3.92;;;;;;;12.95;100.00;101543.91;5280763;28;20092;-72
2023/08/07 00:18:55;;;;;;;15.52;3.90;;;;;;;12.93;100.00;101545.91;5287307;28;20100;-72
2023/08/07 00:21:26;;;;;;;12.80;2.97;;;;;;;12.95;100.00;101543.03;5286759;28;20031;-72
2023/08/07 00:23:56;;;;;;;10.18;3.25;;;;;;;12.92;100.00;101541.53;5286676;28;20038;-72
2023/08/07 00:26:27;;;;;;;15.10;3.25;;;;;;;12.87;100.00;101543.88;5286804;28;20030;-72
2023/08/07 00:28:58;;;;;;;10.18;3.35;;;;;;;12.86;100.00;101546.75;5286876;28;20028;-72
2023/08/07 00:31:31;;;;;;;13.18;3.35;;;;;;;12.83;100.00;101550.59;5273799;28;20023;-72
2023/08/07 00:34:02;;;;;;;13.70;3.35;;;;;;;12.78;100.00;101552.09;5287312;28;20471;-72
2023/08/07 00:36:34;;;;;;;11.63;3.45;;;;;;;12.78;100.00;101555.63;5286065;28;20020;-72
2023/08/07 00:39:05;;;;;;;12.27;3.38;;;;;;;12.69;100.00;101559.28;5286767;28;20028;-72
2023/08/07 00:41:35;;;;;;;13.95;4.05;;;;;;;12.71;100.00;101560.00;5287092;28;20427;-72
2023/08/07 00:44:06;;;;;;;12.68;3.60;;;;;;;12.68;100.00;101566.53;5287102;28;20023;-72
2023/08/07 00:46:39;;;;;;;17.17;3.85;;;;;;;12.67;100.00;101562.16;5286485;28;20392;-72
2023/08/07 00:49:11;;;;;;;16.17;4.10;;;;;;;12.69;100.00;101564.69;5286198;28;20469;-72
2023/08/07 00:51:42;;;;;;;15.13;3.70;;;;;;;12.73;100.00;101560.66;5286833;28;20043;-72
2023/08/07 00:54:18;;;;;;;22.55;4.50;;;;;;;12.87;100.00;101565.41;5286705;28;20051;-72
2023/08/07 00:56:49;;;;;;;18.05;3.58;;;;;;;12.87;100.00;101567.28;5286349;28;20492;-72
2023/08/07 00:59:20;;;;;;;16.73;3.35;;;;;;;12.87;100.00;101570.81;5286320;28;20036;-72
2023/08/07 01:01:50;;;;;;;12.02;4.15;;;;;;;12.95;100.00;101565.47;5287331;28;20526;-72
2023/08/07 01:04:21;;;;;;;14.32;4.20;;;;;;;13.02;100.00;101565.63;5281521;28;20020;-72
2023/08/07 01:06:51;;;;;;;16.38;3.42;;;;;;;13.05;100.00;101564.44;5277335;28;20092;-72
2023/08/07 01:09:23;;;;;;;16.40;3.95;;;;;;;12.97;100.00;101562.59;5286234;28;20020;-73
2023/08/07 01:12:27;;;;;;;12.77;2.83;;;;;;;13.01;100.00;101563.94;5268125;28;20093;-72
2023/08/07 01:15:12;;;;;;;19.48;3.78;;;;;;;12.96;100.00;101566.28;5286027;28;20032;-72
2023/08/07 01:17:44;;;;;;;13.68;3.25;;;;;;;12.94;100.00;101566.44;5272550;28;20481;-72
2023/08/07 01:20:15;;;;;;;11.15;2.75;;;;;;;12.90;100.00;101564.25;5267707;28;20028;-72
2023/08/07 01:22:47;;;;;;;16.45;3.40;;;;;;;12.87;100.00;101561.88;5286260;28;20092;-72
2023/08/07 01:25:17;;;;;;;15.68;3.25;;;;;;;12.77;100.00;101566.56;5285953;28;20028;-72
2023/08/07 01:27:59;;;;;;;14.32;3.58;;;;;;;12.81;100.00;101565.25;5285614;28;20024;-72
2023/08/07 01:30:36;;;;;;;11.45;3.08;;;;;;;12.78;100.00;101571.78;5285958;28;20469;-72
2023/08/07 01:33:22;;;;;;;12.23;3.10;;;;;;;12.75;100.00;101571.25;5285797;28;20031;-72
2023/08/07 01:35:57;;;;;;;18.67;3.38;;;;;;;12.74;100.00;101569.56;5256873;28;20034;-72
2023/08/07 01:38:29;;;;;;;13.00;3.42;;;;;;;12.70;100.00;101567.22;5283746;28;20494;-72
2023/08/07 01:41:01;;;;;;;17.40;3.97;;;;;;;12.67;100.00;101564.84;5285714;28;20034;-72
2023/08/07 01:43:32;;;;;;;9.68;3.35;;;;;;;12.64;100.00;101564.31;5279386;28;20110;-72
2023/08/07 01:46:04;;;;;;;9.20;3.42;;;;;;;12.61;100.00;101568.19;5278480;28;20028;-72
2023/08/07 01:48:35;;;;;;;11.65;3.17;;;;;;;12.59;100.00;101567.50;5286154;28;20074;-72
2023/08/07 01:51:05;;;;;;;15.90;3.75;;;;;;;12.54;100.00;101567.13;5286066;28;20016;-72
2023/08/07 01:53:36;;;;;;;16.33;3.53;;;;;;;12.54;100.00;101569.00;5285714;28;20045;-72
2023/08/07 01:56:06;;;;;;;11.77;3.17;;;;;;;12.49;100.00;101574.84;5285434;28;20027;-72
2023/08/07 01:58:37;;;;;;;8.27;3.20;;;;;;;12.47;100.00;101570.66;5286074;28;20012;-72
2023/08/07 02:01:08;;;;;;;11.63;3.42;;;;;;;12.49;100.00;101572.16;5286189;28;20031;-72
2023/08/07 02:03:38;;;;;;;13.95;3.25;;;;;;;12.47;100.00;101574.19;5285725;28;20026;-72
2023/08/07 02:06:09;;;;;;;9.05;2.88;;;;;;;12.50;100.00;101570.31;5284524;28;20071;-72
2023/08/07 02:08:39;;;;;;;9.95;3.35;;;;;;;12.50;100.00;101573.00;5271867;28;20043;-72
2023/08/07 02:11:10;;;;;;;10.75;3.17;;;;;;;12.54;100.00;101572.53;5285229;28;20024;-72
2023/08/07 02:13:41;;;;;;;10.85;3.20;;;;;;;12.54;100.00;101575.22;5271901;28;20429;-72
2023/08/07 02:16:12;;;;;;;13.35;3.13;;;;;;;12.60;100.00;101571.03;5285143;28;20077;-72
2023/08/07 02:18:43;;;;;;;12.07;2.92;;;;;;;12.53;100.00;101581.59;5285632;28;20150;-72
2023/08/07 02:21:14;;;;;;;13.95;3.75;;;;;;;12.54;100.00;101580.59;5285772;28;20027;-72
2023/08/07 02:23:45;;;;;;;12.48;2.97;;;;;;;12.56;100.00;101578.59;5285395;28;20030;-72
2023/08/07 02:26:15;;;;;;;10.80;2.97;;;;;;;12.48;100.00;101583.09;5285353;28;20042;-72
2023/08/07 02:28:46;;;;;;;12.68;4.72;;;;;;;12.48;100.00;101575.88;5285117;28;20028;-72
2023/08/07 02:31:16;;;;;;;10.13;3.00;;;;;;;12.43;100.00;101584.41;5285564;28;20042;-72
2023/08/07 02:33:47;;;;;;;16.10;2.70;;;;;;;12.39;100.00;101577.66;5285398;28;20050;-72
2023/08/07 02:36:17;;;;;;;6.47;2.95;;;;;;;12.34;100.00;101589.91;5284829;28;20023;-72
2023/08/07 02:38:48;;;;;;;17.05;3.40;;;;;;;12.28;100.00;101583.31;5285373;28;20241;-72
2023/08/07 02:41:18;;;;;;;11.65;2.70;;;;;;;12.20;100.00;101583.28;5283175;28;20020;-72
2023/08/07 02:43:49;;;;;;;14.23;3.00;;;;;;;12.26;100.00;101587.19;5273600;28;20034;-72
2023/08/07 02:46:20;;;;;;;9.45;2.97;;;;;;;12.14;100.00;101579.38;5288929;28;20311;-72
2023/08/07 02:48:50;;;;;;;12.70;3.75;;;;;;;12.18;100.00;101580.75;5289542;28;20518;-72
2023/08/07 02:51:21;;;;;;;11.07;2.63;;;;;;;12.21;100.00;101578.75;5289624;28;20062;-72
2023/08/07 02:53:51;;;;;;;11.13;2.72;;;;;;;12.20;100.00;101577.91;5289831;28;20114;-72
2023/08/07 02:56:22;;;;;;;11.43;3.25;;;;;;;12.21;100.00;101584.13;5288875;28;20027;-72
2023/08/07 02:58:52;;;;;;;12.95;3.38;;;;;;;12.12;100.00;101578.69;5276036;28;20484;-72
2023/08/07 03:01:22;;;;;;;16.50;3.17;;;;;;;12.07;100.00;101581.03;5289039;28;20020;-72
2023/08/07 03:03:53;;;;;;;11.55;2.83;;;;;;;12.07;100.00;101591.78;5288997;28;20042;-72
2023/08/07 03:06:24;;;;;;;10.25;2.38;;;;;;;12.06;100.00;101583.88;5288598;28;20024;-72
2023/08/07 03:08:54;;;;;;;8.57;3.08;;;;;;;12.06;100.00;101584.72;5288760;28;20080;-72
2023/08/07 03:11:25;;;;;;;8.60;3.67;;;;;;;12.06;100.00;101573.97;5288898;28;20028;-72
2023/08/07 03:13:55;;;;;;;12.85;2.88;;;;;;;12.04;100.00;101586.69;5289053;28;20077;-72
2023/08/07 03:16:26;;;;;;;9.10;3.05;;;;;;;12.04;100.00;101583.16;5288438;28;20033;-72
2023/08/07 03:18:57;;;;;;;11.75;3.25;;;;;;;12.01;100.00;101573.59;5288152;28;20024;-72
2023/08/07 03:21:27;;;;;;;9.10;3.33;;;;;;;12.08;100.00;101580.00;5289150;28;20497;-72
2023/08/07 03:23:58;;;;;;;8.60;2.63;;;;;;;12.08;100.00;101569.25;5288953;28;20027;-72
2023/08/07 03:26:29;;;;;;;11.48;2.92;;;;;;;12.11;100.00;101570.78;5288741;28;20026;-72
2023/08/07 03:28:59;;;;;;;12.25;3.13;;;;;;;12.13;100.00;101582.22;5288615;28;20024;-72
2023/08/07 03:31:29;;;;;;;11.25;2.92;;;;;;;12.13;100.00;101571.47;5288846;28;20023;-72
2023/08/07 03:34:00;;;;;;;10.27;2.85;;;;;;;12.24;100.00;101579.25;5288764;28;20484;-72
2023/08/07 03:36:31;;;;;;;10.23;2.38;;;;;;;12.24;100.00;101576.56;5288119;28;20024;-72
2023/08/07 03:39:01;;;;;;;8.88;2.50;;;;;;;12.32;100.00;101579.31;5288629;28;20409;-72
2023/08/07 03:41:32;;;;;;;8.55;2.53;;;;;;;12.39;100.00;101576.81;5288529;28;20102;-72
2023/08/07 03:44:02;;;;;;;15.13;3.13;;;;;;;12.41;100.00;101572.13;5288223;28;20480;-72
2023/08/07 03:46:33;;;;;;;9.75;2.97;;;;;;;12.47;100.00;101576.03;5287856;28;20024;-72
2023/08/07 03:49:03;;;;;;;6.80;2.40;;;;;;;12.52;100.00;101574.53;5288161;28;20028;-72
2023/08/07 03:51:34;;;;;;;13.13;2.78;;;;;;;12.61;100.00;101581.66;5288284;28;20376;-72
2023/08/07 03:54:06;;;;;;;12.90;3.15;;;;;;;12.67;100.00;101577.47;5288169;28;20023;-72
2023/08/07 03:56:37;;;;;;;12.30;2.65;;;;;;;12.66;100.00;101576.63;5287486;28;20027;-73
2023/08/07 03:59:08;;;;;;;7.47;2.50;;;;;;;12.70;100.00;101579.81;5287891;28;20087;-72
2023/08/07 04:01:38;;;;;;;10.32;2.30;;;;;;;12.74;100.00;101581.19;5288623;28;20076;-72
2023/08/07 04:04:09;;;;;;;7.55;2.65;;;;;;;12.78;100.00;101590.63;5287933;28;20024;-72
2023/08/07 04:06:39;;;;;;;12.13;2.92;;;;;;;12.82;100.00;101585.78;5287652;28;20054;-71
2023/08/07 04:09:10;;;;;;;8.55;2.30;;;;;;;12.87;100.00;101594.19;5268817;28;20062;-72
2023/08/07 04:11:40;;;;;;;11.18;3.35;;;;;;;12.85;100.00;101580.91;5283147;28;20399;-72
2023/08/07 04:14:11;;;;;;;8.88;2.60;;;;;;;12.82;100.00;101580.38;5288073;28;20068;-72
2023/08/07 04:16:41;;;;;;;11.90;2.40;;;;;;;12.96;100.00;101585.16;5287297;28;20020;-72
2023/08/07 04:19:12;;;;;;;7.95;2.40;;;;;;;13.02;100.00;101591.72;5287665;28;20019;-72
2023/08/07 04:21:42;;;;;;;8.48;2.80;;;;;;;12.95;100.00;101592.38;5287891;28;20068;-72
2023/08/07 04:24:13;;;;;;;11.68;2.28;;;;;;;12.96;100.00;101593.22;5287794;28;20088;-72
2023/08/07 04:26:43;;;;;;;9.02;2.45;;;;;;;13.00;100.00;101589.19;5287402;28;20385;-72
2023/08/07 04:29:14;;;;;;;4.90;2.45;;;;;;;12.98;100.00;101596.59;5287575;28;20027;-73
2023/08/07 04:31:44;;;;;;;12.90;2.85;;;;;;;13.03;100.00;101598.78;5287479;28;20027;-72
2023/08/07 04:34:15;;;;;;;10.27;2.85;;;;;;;13.03;100.00;101598.78;5282156;28;20024;-72
2023/08/07 04:36:45;;;;;;;7.72;2.65;;;;;;;13.04;100.00;101584.31;5281988;28;20089;-72
2023/08/07 04:39:16;;;;;;;7.95;2.40;;;;;;;13.00;100.00;101599.09;5278952;28;20069;-72
2023/08/07 04:41:47;;;;;;;13.23;2.60;;;;;;;13.04;100.00;101601.31;5287238;28;20015;-72
2023/08/07 04:44:18;;;;;;;16.38;2.85;;;;;;;13.08;100.00;101599.16;5286775;28;20031;-72
2023/08/07 04:46:48;;;;;;;12.40;2.70;;;;;;;13.07;100.00;101603.69;5255108;28;20023;-72
2023/08/07 04:49:19;;;;;;;9.82;3.00;;;;;;;13.11;100.00;101604.22;5273446;28;20026;-72
2023/08/07 04:51:49;;;;;;;9.13;2.10;;;;;;;13.06;100.00;101603.88;5287222;28;20023;-72
2023/08/07 04:54:20;;;;;;;15.13;3.08;;;;;;;13.12;100.00;101597.81;5287183;28;20084;-72
2023/08/07 04:56:50;;;;;;;15.82;3.13;;;;;;;13.11;100.00;101605.06;5286384;28;20020;-72
2023/08/07 04:59:20;;;;;;;8.75;2.80;;;;;;;13.17;100.00;101604.38;5273361;28;20527;-72
2023/08/07 05:01:51;;;;;;;9.43;2.53;;;;;;;13.17;100.00;101609.78;5287119;28;20024;-72
2023/08/07 05:04:21;;;;;;;12.10;2.88;;;;;;;13.12;100.00;101612.13;5286850;28;20076;-72
2023/08/07 05:06:52;;;;;;;11.23;2.78;;;;;;;13.11;100.00;101617.69;5273964;28;20028;-72
2023/08/07 05:09:22;;;;;;;10.32;3.35;;;;;;;13.04;100.00;101620.16;5285194;28;20015;-72
2023/08/07 05:11:53;;;;;;;7.13;2.42;;;;;;;13.05;100.00;101608.41;5271722;28;20054;-72
2023/08/07 05:14:23;;;;;;;9.70;2.40;;;;;;;12.94;100.00;101620.31;5279349;28;20028;-72
2023/08/07 05:16:54;;;;;;;5.57;2.25;;;;;;;13.00;100.00;101623.34;5284597;28;20380;-71
2023/08/07 05:19:24;;;;;;;12.90;3.65;;;;;;;13.00;100.00;101632.28;5286736;28;20030;-71
2023/08/07 05:21:55;;;;;;;9.68;3.20;;;;;;;12.93;100.00;101629.41;5286194;28;20024;-72
2023/08/07 05:24:25;;;;;;;13.95;3.88;;;;;;;12.91;100.00;101639.50;5286516;28;20019;-71
2023/08/07 05:26:56;;;;;;;14.85;3.42;;;;;;;12.90;100.00;101637.81;5286632;28;20203;-72
2023/08/07 05:29:26;;;;;;;9.20;3.70;;;;;;;12.92;100.00;101640.34;5286987;28;20566;-71
2023/08/07 05:31:57;;;;;;;7.05;2.30;;;;;;;12.88;100.00;101637.13;5286433;28;20031;-71
2023/08/07 05:34:27;;;;;;;12.45;2.92;;;;;;;12.95;100.00;101637.31;5286047;28;20015;-71
2023/08/07 05:36:58;;;;;;;8.88;2.83;;;;;;;12.96;100.00;101647.09;5267951;28;20077;-71
2023/08/07 05:39:28;;;;;;;10.35;2.78;;;;;;;12.90;100.00;101645.03;5286278;28;20011;-72
2023/08/07 05:41:59;;;;;;;15.05;3.60;;;;;;;12.93;100.00;101639.31;5273069;28;20024;-71
2023/08/07 05:44:30;;;;;;;8.80;2.88;;;;;;;12.97;100.00;101646.09;5286316;28;20019;-72
2023/08/07 05:47:00;;;;;;;10.50;2.53;;;;;;;13.09;100.00;101649.31;5285687;28;20023;-71
2023/08/07 05:49:36;;;;;;;13.18;2.88;;;;;;;13.09;100.00;101649.31;5275979;28;20473;-72
2023/08/07 05:52:07;;;;;;;14.60;2.75;;;;;;;13.20;100.00;101649.00;5269455;28;20028;-71
2023/08/07 05:54:37;;;;;;;12.95;2.80;;;;;;;13.28;100.00;101662.53;5284597;28;20030;-72
2023/08/07 05:57:08;;;;;;;11.85;2.70;;;;;;;13.47;100.00;101656.03;5284366;28;20032;-72
2023/08/07 05:59:40;;;;;;;11.15;2.80;;;;;;;13.63;100.00;101658.75;5284417;28;20023;-72
2023/08/07 06:02:11;;;;;;;13.15;2.80;;;;;;;14.07;100.00;101663.84;5284727;28;20106;-72
2023/08/07 06:04:42;;;;;;;16.23;4.60;;;;;;;14.67;100.00;101654.47;5284679;28;20027;-72
2023/08/07 06:07:12;;;;;;;9.38;2.30;;;;;;;15.57;100.00;101659.47;5269464;28;20090;-72
2023/08/07 06:09:43;;;;;;;7.20;2.22;;;;;;;16.07;100.00;101652.69;5272441;28;20059;-73
2023/08/07 06:12:14;;;;;;;9.85;2.47;;;;;;;16.65;100.00;101654.59;5281437;28;20024;-73
2023/08/07 06:14:44;;;;;;;12.52;2.75;;;;;;;17.17;100.00;101659.09;5273743;28;20092;-73
2023/08/07 06:17:15;;;;;;;8.68;1.98;;;;;;;17.54;100.00;101659.94;5266263;28;20026;-73
2023/08/07 06:19:45;;;;;;;10.38;2.65;;;;;;;17.70;100.00;101650.69;5276763;28;20027;-73
2023/08/07 06:22:16;;;;;;;8.95;2.30;;;;;;;17.95;100.00;101662.88;5288157;28;20051;-73
2023/08/07 06:24:47;;;;;;;5.40;2.47;;;;;;;18.46;100.00;101664.53;5269799;28;20035;-73
2023/08/07 06:27:20;;;;;;;4.30;1.75;;;;;;;18.76;100.00;101665.16;5281215;28;20491;-73
2023/08/07 06:29:51;;;;;;;6.82;2.17;;;;;;;18.62;100.00;101675.06;5281902;28;20042;-73
2023/08/07 06:32:22;;;;;;;6.57;2.33;;;;;;;18.86;100.00;101674.63;5261499;28;20020;-73
2023/08/07 06:34:53;;;;;;;4.47;2.10;;;;;;;19.04;100.00;101670.56;5282836;28;20499;-74
2023/08/07 06:37:23;;;;;;;5.70;1.90;;;;;;;19.31;100.00;101672.31;5277582;28;20034;-73
2023/08/07 06:39:54;;;;;;;5.85;2.10;;;;;;;19.26;100.00;101674.81;5284812;28;20027;-73
2023/08/07 06:42:24;;;;;;;5.45;2.05;;;;;;;19.55;100.00;101676.38;5288625;28;20023;-74
2023/08/07 06:44:55;;;;;;;6.57;2.50;;;;;;;19.54;100.00;101668.44;5287615;28;20076;-74
2023/08/07 06:47:25;;;;;;;11.98;2.00;;;;;;;19.65;100.00;101670.56;5287072;28;20349;-73
2023/08/07 06:49:56;;;;;;;5.32;2.20;;;;;;;20.04;100.00;101674.41;5287616;28;20030;-73
2023/08/07 06:52:26;;;;;;;7.13;2.22;;;;;;;20.33;100.00;101684.88;5287744;28;20020;-74
2023/08/07 06:54:57;;;;;;;8.55;2.28;;;;;;;20.15;100.00;101668.31;5287506;28;20095;-74
2023/08/07 06:57:28;;;;;;;8.25;2.38;;;;;;;20.15;100.00;101671.88;5272066;27;20392;-74
2023/08/07 06:59:58;;;;;;;7.53;2.45;;;;;;;20.22;100.00;101674.59;5300397;27;20484;-74
2023/08/07 07:02:30;;;;;;;7.03;1.98;;;;;;;20.31;100.00;101672.50;5299724;27;20084;-74
2023/08/07 07:05:00;;;;;;;7.10;2.25;;;;;;;20.28;100.00;101671.06;5291776;27;20364;-73
2023/08/07 07:07:31;;;;;;;5.28;2.25;;;;;;;20.58;100.00;101667.88;5300074;27;20028;-73
2023/08/07 07:10:01;;;;;;;6.60;2.22;;;;;;;20.78;100.00;101665.94;5294341;27;20011;-74
2023/08/07 07:12:32;;;;;;;7.25;2.20;;;;;;;20.31;100.00;101669.78;5295601;27;20526;-73
2023/08/07 07:15:03;;;;;;;9.73;2.47;;;;;;;20.53;100.00;101673.13;5288905;27;20468;-73
2023/08/07 07:17:33;;;;;;;3.90;1.90;;;;;;;;;;5294835;27;20642;-74
2023/08/07 07:20:04;;;;;;;8.05;2.75;;;;;;;20.84;100.00;101670.56;5304040;27;20015;-74
2023/08/07 07:22:35;;;;;;;6.85;2.40;;;;;;;20.80;100.00;101673.94;5289958;27;20448;-73
2023/08/07 07:25:06;;;;;;;8.63;2.30;;;;;;;20.64;100.00;101675.22;5301340;27;20027;-74
2023/08/07 07:27:36;;;;;;;6.82;2.47;;;;;;;20.66;100.00;101673.13;5289711;27;20361;-73
2023/08/07 07:30:07;;;;;;;8.90;2.05;;;;;;;20.86;100.00;101675.78;5297728;27;20370;-74
2023/08/07 07:32:38;;;;;;;9.80;2.45;;;;;;;20.64;100.00;101678.78;5299961;27;20049;-74
2023/08/07 07:35:09;;;;;;;5.18;2.53;;;;;;;20.54;100.00;101677.56;5295111;27;20493;-74
2023/08/07 07:37:39;;;;;;;11.90;2.28;;;;;;;20.60;100.00;101684.88;5293158;27;20027;-73
2023/08/07 07:40:10;;;;;;;8.18;2.38;;;;;;;19.86;100.00;101675.84;5293975;27;20019;-74
2023/08/07 07:42:41;;;;;;;10.40;2.30;;;;;;;19.09;100.00;101684.38;5297895;27;20441;-73
2023/08/07 07:45:11;;;;;;;6.28;2.55;;;;;;;18.51;100.00;101683.78;5297041;27;20030;-73
2023/08/07 07:47:42;;;;;;;6.38;1.75;;;;;;;19.07;100.00;101690.00;5298097;27;20019;-73
2023/08/07 07:50:13;;;;;;;9.05;2.10;;;;;;;19.49;100.00;101690.81;5293433;27;20015;-73
2023/08/07 07:52:44;;;;;;;6.80;1.88;;;;;;;19.85;100.00;101698.66;5296922;27;20027;-73
2023/08/07 07:55:14;;;;;;;6.35;2.10;;;;;;;20.05;100.00;101706.88;5274600;28;20015;-73
2023/08/07 07:57:45;;;;;;;7.13;2.42;;;;;;;20.38;100.00;101706.88;5287639;28;20419;-73
2023/08/07 08:00:16;;;;;;;5.95;2.42;;;;;;;20.48;100.00;101711.91;5287397;28;20553;-73
2023/08/07 08:02:46;;;;;;;4.47;1.85;;;;;;;20.53;100.00;101720.31;5288230;28;20485;-74
2023/08/07 08:05:17;;;;;;;12.05;2.05;;;;;;;20.43;100.00;101718.00;5269438;28;20023;-73
2023/08/07 08:07:48;;;;;;;9.32;1.90;;;;;;;20.26;100.00;101714.00;5273562;28;20523;-73
2023/08/07 08:10:18;;;;;;;7.35;2.40;;;;;;;20.33;100.00;101709.41;5287177;28;20080;-74
2023/08/07 08:12:49;;;;;;;9.20;2.20;;;;;;;20.42;100.00;101701.84;5282601;27;20032;-73
2023/08/07 08:15:19;;;;;;;8.63;2.70;;;;;;;20.61;100.00;101711.09;5296626;27;20502;-73
2023/08/07 08:17:50;;;;;;;7.45;2.03;;;;;;;20.64;100.00;101708.78;5296146;27;20035;-74
2023/08/07 08:20:20;;;;;;;9.80;2.00;;;;;;;20.68;100.00;101715.50;5294982;27;20344;-73
2023/08/07 08:22:51;;;;;;;9.75;2.88;;;;;;;19.93;100.00;101724.88;5284300;28;20102;-73
2023/08/07 08:25:22;;;;;;;5.53;1.80;;;;;;;19.26;100.00;101723.78;5286489;27;20042;-73
2023/08/07 08:27:52;;;;;;;7.50;2.45;;;;;;;18.98;100.00;101733.91;5303555;27;20506;-74
2023/08/07 08:30:23;;;;;;;8.07;2.28;;;;;;;18.67;100.00;101734.28;5297907;27;20034;-73
2023/08/07 08:32:53;;;;;;;11.25;2.50;;;;;;;18.36;100.00;101736.34;5300785;27;20027;-73
2023/08/07 08:35:24;;;;;;;6.03;2.28;;;;;;;18.29;100.00;101740.03;5273941;28;20465;-73
2023/08/07 08:37:54;;;;;;;5.28;2.03;;;;;;;18.86;100.00;101728.16;5291088;27;20033;-73
2023/08/07 08:40:25;;;;;;;12.07;2.30;;;;;;;19.65;100.00;101734.00;5299131;27;20068;-73
2023/08/07 08:42:57;;;;;;;5.43;1.90;;;;;;;19.99;100.00;101732.22;5295352;27;20059;-73
2023/08/07 08:45:32;;;;;;;7.97;2.13;;;;;;;20.23;100.00;101733.50;5277707;27;20156;-73
2023/08/07 08:48:04;;;;;;;4.30;2.17;;;;;;;20.52;100.00;101731.44;5272356;28;20027;-73
2023/08/07 08:50:36;;;;;;;8.90;2.10;;;;;;;20.93;100.00;101736.59;5285668;28;20023;-73
2023/08/07 08:53:08;;;;;;;9.68;2.72;;;;;;;20.53;100.00;101733.09;5285677;28;20030;-73
2023/08/07 08:55:42;;;;;;;8.63;2.17;;;;;;;20.87;100.00;101724.66;5285060;28;20495;-73
2023/08/07 08:58:15;;;;;;;8.95;2.20;;;;;;;21.07;100.00;101737.41;5272468;28;20019;-73
2023/08/07 09:00:45;;;;;;;6.00;2.08;;;;;;;21.21;100.00;101745.34;5284632;28;20033;-73
2023/08/07 09:03:18;;;;;;;13.15;2.50;;;;;;;21.42;100.00;101757.06;5285617;28;20027;-74
2023/08/07 09:05:52;;;;;;;4.28;2.00;;;;;;;21.40;100.00;101742.81;5284513;28;20129;-74
2023/08/07 09:08:26;;;;;;;4.37;2.07;;;;;;;21.22;100.00;101751.63;5273529;28;20028;-73
2023/08/07 09:10:57;;;;;;;5.70;1.80;;;;;;;21.23;100.00;101742.41;5272212;28;20066;-73
2023/08/07 09:13:28;;;;;;;8.18;2.17;;;;;;;21.44;100.00;101733.97;5281005;28;20024;-73
2023/08/07 09:16:00;;;;;;;9.25;2.30;;;;;;;21.54;100.00;101738.13;5281408;27;20538;-74
2023/08/07 09:18:31;;;;;;;5.18;2.15;;;;;;;20.93;100.00;101742.06;5279384;28;20393;-73
2023/08/07 09:21:01;;;;;;;7.18;1.90;;;;;;;20.70;100.00;101750.72;5285485;28;20019;-74
2023/08/07 09:23:32;;;;;;;6.68;1.90;;;;;;;20.91;100.00;101750.47;5284454;28;20610;-73
2023/08/07 09:26:04;;;;;;;6.93;1.90;;;;;;;21.28;100.00;101739.03;5284175;28;20038;-74
2023/08/07 09:28:34;;;;;;;6.35;2.03;;;;;;;21.31;100.00;101746.81;5271227;28;20039;-73
2023/08/07 09:31:08;;;;;;;5.63;1.80;;;;;;;21.40;100.00;101749.09;5285356;28;20043;-73
2023/08/07 09:33:39;;;;;;;6.57;2.05;;;;;;;20.68;100.00;101745.47;5285556;28;20027;-74
2023/08/07 09:36:09;;;;;;;6.20;1.60;;;;;;;20.95;100.00;101754.44;5284060;28;20073;-74
2023/08/07 09:38:40;;;;;;;5.43;1.95;;;;;;;21.12;100.00;101752.09;5285075;28;20080;-73
2023/08/07 09:41:10;;;;;;;3.75;1.92;;;;;;;21.30;100.00;101748.72;5284932;28;20485;-73
2023/08/07 09:43:41;;;;;;;8.60;1.85;;;;;;;21.57;100.00;101759.53;5285198;28;20034;-73
2023/08/07 09:46:11;;;;;;;5.43;1.90;;;;;;;20.58;100.00;101755.97;5284781;28;20047;-73
2023/08/07 09:48:43;;;;;;;4.43;1.63;;;;;;;20.57;100.00;101758.88;5284366;28;20531;-73
2023/08/07 09:51:16;;;;;;;5.50;1.80;;;;;;;20.62;100.00;101759.09;5280928;28;20061;-73
2023/08/07 09:53:47;;;;;;;3.00;1.67;;;;;;;20.91;100.00;101769.56;5275132;28;20023;-73
2023/08/07 09:56:17;;;;;;;9.85;1.80;;;;;;;21.32;100.00;101759.41;5284008;28;20047;-73
2023/08/07 09:58:48;;;;;;;7.00;2.47;;;;;;;21.57;100.00;101770.44;5284407;28;20388;-73
2023/08/07 10:01:19;;;;;;;6.57;2.53;;;;;;;21.67;100.00;101770.81;5284231;28;20035;-73
2023/08/07 10:03:50;;;;;;;5.55;1.85;;;;;;;21.46;100.00;101772.78;5284546;28;20378;-74
2023/08/07 10:06:21;;;;;;;5.15;1.88;;;;;;;21.31;100.00;101771.38;5283939;28;20024;-73
2023/08/07 10:08:52;;;;;;;5.20;1.90;;;;;;;21.26;100.00;101776.63;5270526;28;20021;-73
2023/08/07 10:11:23;;;;;;;5.13;1.88;;;;;;;21.21;100.00;101783.56;5274574;28;20097;-74
2023/08/07 10:13:57;;;;;;;4.70;1.92;;;;;;;21.56;100.00;101768.78;5277276;28;20031;-74
2023/08/07 10:16:29;;;;;;;3.55;1.50;;;;;;;21.94;100.00;101757.88;5278621;28;20027;-73
2023/08/07 10:18:59;;;;;;;4.13;1.77;;;;;;;22.06;100.00;101775.22;5284461;28;20020;-73
2023/08/07 10:21:30;;;;;;;3.75;1.75;;;;;;;21.52;100.00;101781.19;5284686;28;20504;-73
2023/08/07 10:24:04;;;;;;;4.15;1.77;;;;;;;21.25;100.00;101780.41;5283354;28;20134;-73
2023/08/07 10:26:41;;;;;;;4.07;1.58;;;;;;;20.95;100.00;101795.38;5283604;28;20020;-74
2023/08/07 10:29:16;;;;;;;4.25;1.60;;;;;;;20.95;100.00;101789.06;5284519;28;20020;-73
2023/08/07 10:31:47;;;;;;;;;;;;;;;21.32;100.00;101786.69;5284528;28;20027;-74
2023/08/07 10:34:18;;;;;;;4.93;1.70;;;;;;;21.27;100.00;101783.75;5272392;28;20319;-73
2023/08/07 10:36:49;;;;;;;5.82;1.70;;;;;;;21.40;100.00;101783.75;5276622;28;20031;-73
2023/08/07 10:39:21;;;;;;;2.10;1.45;;;;;;;20.98;100.00;101794.09;5276182;28;20027;-73
2023/08/07 10:41:54;;;;;;;10.48;1.50;;;;;;;21.35;100.00;101787.13;5284382;28;20101;-74
2023/08/07 10:44:30;;;;;;;6.20;1.48;;;;;;;21.80;100.00;101789.88;5283178;28;20024;-74
2023/08/07 10:47:01;;;;;;;3.20;1.50;;;;;;;22.11;100.00;101797.28;5271412;28;20043;-74
2023/08/07 10:49:36;;;;;;;8.57;1.92;;;;;;;21.79;100.00;101784.59;5283418;28;20080;-74
2023/08/07 10:52:10;;;;;;;2.58;1.45;;;;;;;21.81;100.00;101796.16;5284131;28;20397;-74
2023/08/07 10:54:46;;;;;;;4.05;1.58;;;;;;;22.08;100.00;101791.38;5283630;28;20062;-74
2023/08/07 10:57:18;;;;;;;3.05;1.63;;;;;;;22.12;100.00;101779.84;5282898;28;20028;-74
2023/08/07 11:00:09;;;;;;;3.90;1.70;;;;;;;22.21;100.00;101797.66;5256681;28;20036;-74
2023/08/07 11:02:42;;;;;;;2.83;1.58;;;;;;;21.87;100.00;101787.09;5280187;28;20260;-73
2023/08/07 11:05:12;;;;;;;2.25;1.42;;;;;;;21.81;100.00;101798.91;5283569;28;20560;-73
2023/08/07 11:07:44;;;;;;;5.68;1.63;;;;;;;21.99;100.00;101788.09;5282114;28;20114;-74
2023/08/07 11:10:15;;;;;;;3.25;1.90;;;;;;;22.13;100.00;101794.34;5286595;28;20115;-74
2023/08/07 11:12:46;;;;;;;6.63;1.50;;;;;;;21.91;100.00;101791.06;5285732;28;20057;-74
2023/08/07 11:15:16;;;;;;;4.32;1.30;;;;;;;21.67;100.00;101798.13;5284232;28;20028;-73
2023/08/07 11:17:47;;;;;;;4.35;1.63;;;;;;;21.64;100.00;101802.13;5286637;28;20115;-73
2023/08/07 11:20:19;;;;;;;3.75;1.30;;;;;;;21.72;100.00;101809.22;5286689;28;20372;-73
2023/08/07 11:22:49;;;;;;;2.50;1.50;;;;;;;22.16;100.00;101799.38;5287039;28;20019;-74
2023/08/07 11:25:20;;;;;;;4.22;1.50;;;;;;;22.21;100.00;101800.38;5281522;28;20507;-74
2023/08/07 11:27:50;;;;;;;3.22;1.30;;;;;;;21.86;100.00;101807.28;5266567;28;20016;-74
2023/08/07 11:30:21;;;;;;;2.78;1.42;;;;;;;21.52;100.00;101805.75;5286473;28;20027;-71
2023/08/07 11:32:51;;;;;;;2.80;1.70;;;;;;;21.60;100.00;101808.25;5287529;27;20027;-71